createdAt,value
2023-03-06T00:03:31.784Z,2.24
2023-03-06T00:13:33.629Z,2.23
2023-03-06T00:23:31.867Z,2.38
2023-03-06T00:33:33.172Z,2.38
2023-03-06T00:43:32.218Z,2.46
2023-03-06T00:53:34.368Z,2.38
2023-03-06T01:03:32.603Z,2.42
2023-03-06T01:13:32.897Z,2.17
2023-03-06T01:23:33.713Z,2.24
2023-03-06T01:33:33.274Z,2.34
2023-03-06T01:43:33.354Z,1.65
2023-03-06T01:53:33.737Z,1.48
2023-03-06T02:03:33.784Z,1.51
2023-03-06T02:13:34.221Z,1.91
2023-03-06T02:23:34.280Z,1.72
2023-03-06T02:33:34.619Z,1.77
2023-03-06T02:43:34.679Z,1.83
2023-03-06T02:53:34.969Z,1.79
2023-03-06T03:03:35.022Z,1.98
2023-03-06T03:13:35.419Z,1.95
2023-03-06T03:23:35.455Z,1.52
2023-03-06T03:33:35.786Z,1.24
2023-03-06T03:43:35.826Z,0.80
2023-03-06T03:53:37.182Z,0.75
2023-03-06T04:03:36.232Z,0.88
2023-03-06T04:13:36.532Z,0.62
2023-03-06T04:23:36.551Z,0.49
2023-03-06T04:33:36.909Z,0.31
2023-03-06T04:43:36.933Z,0.42
2023-03-06T04:53:37.267Z,0.49
2023-03-06T05:03:37.300Z,0.55
2023-03-06T05:13:37.747Z,0.46
2023-03-06T05:23:37.802Z,0.46
2023-03-06T05:33:38.209Z,0.50
2023-03-06T05:43:38.245Z,0.53
2023-03-06T05:53:38.715Z,0.68
2023-03-06T06:03:38.604Z,0.62
2023-03-06T06:13:41.929Z,0.24
2023-03-06T06:23:38.760Z,0.68
2023-03-06T06:33:39.014Z,1.05
2023-03-06T06:43:39.249Z,1.18
2023-03-06T06:53:39.495Z,1.04
2023-03-06T07:03:39.598Z,1.14
2023-03-06T07:13:39.659Z,1.30
2023-03-06T07:23:39.904Z,1.36
2023-03-06T07:33:40.236Z,1.66
2023-03-06T07:43:40.263Z,2.06
2023-03-06T07:53:40.605Z,2.30
2023-03-06T08:03:40.649Z,2.49
2023-03-06T08:13:40.786Z,2.84
2023-03-06T08:23:40.820Z,2.71
2023-03-06T08:33:41.135Z,2.71
2023-03-06T08:43:41.182Z,3.05
2023-03-06T08:53:43.645Z,3.29
2023-03-06T09:03:41.510Z,3.43
2023-03-06T09:13:41.873Z,3.72
2023-03-06T09:23:41.928Z,3.96
2023-03-06T09:33:42.255Z,4.08
2023-03-06T09:43:42.294Z,4.11
2023-03-06T09:53:42.630Z,4.06
2023-03-06T10:03:42.658Z,4.36
2023-03-06T10:13:42.991Z,4.82
2023-03-06T10:23:43.023Z,5.48
2023-03-06T10:33:43.365Z,6.84
2023-03-06T10:43:43.421Z,7.17
2023-03-06T10:53:43.749Z,7.13
2023-03-06T11:03:43.780Z,7.25
2023-03-06T11:13:44.209Z,7.77
2023-03-06T11:23:44.239Z,7.95
2023-03-06T11:33:44.594Z,7.57
2023-03-06T11:43:44.631Z,7.53
2023-03-06T11:53:44.951Z,7.28
2023-03-06T12:03:44.986Z,7.23
2023-03-06T12:13:45.316Z,7.32
2023-03-06T12:23:45.330Z,7.43
2023-03-06T12:33:45.585Z,7.67
2023-03-06T12:43:45.809Z,8.18
2023-03-06T12:53:48.067Z,8.04
2023-03-06T13:03:46.301Z,8.44
2023-03-06T13:13:47.683Z,7.89
2023-03-06T13:23:46.709Z,8.00
2023-03-06T13:33:47.054Z,8.44
2023-03-06T13:43:47.088Z,7.92
2023-03-06T13:53:47.381Z,8.18
2023-03-06T14:03:47.428Z,7.95
2023-03-06T14:13:47.967Z,7.53
2023-03-06T14:23:47.805Z,7.48
2023-03-06T14:33:48.210Z,7.83
2023-03-06T14:43:48.277Z,7.77
2023-03-06T14:53:48.582Z,7.37
2023-03-06T15:03:49.621Z,7.77
2023-03-06T15:13:48.945Z,7.58
2023-03-06T15:23:49.066Z,7.46
2023-03-06T15:33:49.202Z,7.42
2023-03-06T15:43:49.250Z,7.35
2023-03-06T15:53:50.255Z,6.97
2023-03-06T16:03:49.683Z,6.55
2023-03-06T16:13:49.768Z,6.46
2023-03-06T16:23:50.075Z,6.38
2023-03-06T16:33:52.161Z,6.11
2023-03-06T16:43:50.411Z,5.96
2023-03-06T16:53:50.700Z,5.99
2023-03-06T17:03:50.968Z,5.85
2023-03-06T17:13:51.162Z,5.68
2023-03-06T17:23:51.113Z,5.65
2023-03-06T17:33:51.706Z,5.60
2023-03-06T17:43:51.572Z,5.57
2023-03-06T17:53:52.077Z,5.45
2023-03-06T18:03:51.982Z,5.40
2023-03-06T18:13:54.169Z,5.51
2023-03-06T18:23:52.196Z,5.33
2023-03-06T18:33:52.571Z,5.63
2023-03-06T18:43:52.770Z,5.63
2023-03-06T18:53:53.091Z,5.53
2023-03-06T19:03:53.236Z,5.40
2023-03-06T19:14:08.190Z,5.46
2023-03-06T19:23:59.621Z,5.39
2023-03-06T19:33:53.643Z,5.45
2023-03-06T19:43:53.899Z,5.39
2023-03-06T19:53:58.125Z,5.35
2023-03-06T20:03:54.166Z,5.35
2023-03-06T20:13:54.489Z,5.43
2023-03-06T20:23:54.490Z,5.36
2023-03-06T20:33:55.777Z,5.39
2023-03-06T20:43:54.946Z,5.30
2023-03-06T20:53:55.339Z,5.33
2023-03-06T21:03:55.252Z,5.31
2023-03-06T21:13:59.067Z,5.28
2023-03-06T21:23:55.779Z,5.25
2023-03-06T21:33:55.797Z,5.09
2023-03-06T21:43:55.837Z,5.03
2023-03-06T21:53:57.080Z,4.97
2023-03-06T22:03:56.325Z,4.89
2023-03-06T22:13:56.622Z,4.92
2023-03-06T22:23:56.858Z,4.89
2023-03-06T22:33:57.102Z,4.73
2023-03-06T22:43:57.329Z,4.65
2023-03-06T22:53:58.596Z,4.36
2023-03-06T23:03:57.862Z,4.15
2023-03-06T23:13:57.939Z,3.93
2023-03-06T23:23:58.184Z,3.79
2023-03-06T23:33:58.529Z,3.76
2023-03-06T23:43:58.558Z,3.86
2023-03-06T23:53:58.898Z,3.58
